Time;durP1;ratioP1;P1;durP2;ratioP2;P2;SDS_P1;SDS_P2;PMS_P1;PMS_P2;Temp;Humidity;BMP_temperature;BMP_pressure;BME280_temperature;BME280_humidity;BME280_pressure;Samples;Min_cycle;Max_cycle;Signal;HPM_P1;HPM_P2
2022/12/17 13:07:24;;;;;;;65.95;30.35;;;-3.70;83.70;;;;;;4978167;28;20560;-69
2022/12/17 13:09:54;;;;;;;63.95;29.45;;;-3.60;83.70;;;;;;4976041;28;20030;-68
2022/12/17 13:12:44;;;;;;;66.82;29.83;;;-3.60;83.50;;;;;;4976507;28;20168;-68
2022/12/17 13:15:36;;;;;;;67.10;30.98;;;-3.50;83.60;;;;;;4975771;28;20275;-68
2022/12/17 13:18:24;;;;;;;65.38;29.17;;;-3.50;83.50;;;;;;4979715;28;20055;-69
2022/12/17 13:21:01;;;;;;;70.88;33.63;;;-3.40;83.40;;;;;;4974607;28;20081;-66
2022/12/17 13:23:33;;;;;;;86.45;39.25;;;-3.30;83.20;;;;;;4979134;28;20038;-68
2022/12/17 13:26:15;;;;;;;79.18;38.28;;;-3.30;82.90;;;;;;4985696;28;20058;-68
2022/12/17 13:28:46;;;;;;;75.93;34.47;;;-3.30;82.60;;;;;;4982824;28;20396;-68
2022/12/17 13:31:26;;;;;;;73.85;34.50;;;-3.30;82.60;;;;;;4981592;28;20039;-68
2022/12/17 13:34:07;;;;;;;65.07;32.08;;;-3.20;82.50;;;;;;4986367;28;20034;-68
2022/12/17 13:36:53;;;;;;;61.40;30.10;;;-3.20;82.70;;;;;;4984455;28;20034;-68
2022/12/17 13:39:30;;;;;;;65.07;31.25;;;-3.20;82.50;;;;;;4985357;28;20065;-66
2022/12/17 13:41:56;;;;;;;61.75;28.88;;;-3.20;82.50;;;;;;4984091;28;20045;-68
2022/12/17 13:44:30;;;;;;;59.80;28.63;;;-3.20;82.40;;;;;;4984699;28;20030;-67
2022/12/17 13:46:56;;;;;;;66.07;29.33;;;-3.10;82.30;;;;;;4983560;28;20035;-68
2022/12/17 13:49:29;;;;;;;95.15;41.38;;;-3.10;82.40;;;;;;4982538;28;20048;-68
2022/12/17 13:52:04;;;;;;;59.03;28.45;;;-3.00;82.40;;;;;;4971594;28;20497;-68
2022/12/17 13:54:30;;;;;;;57.08;28.67;;;-3.00;82.20;;;;;;4984988;28;20041;-69
2022/12/17 13:57:09;;;;;;;56.30;27.83;;;-3.00;82.00;;;;;;4985139;28;20038;-68
2022/12/17 13:59:35;;;;;;;55.08;28.55;;;-3.00;81.80;;;;;;4979084;28;20050;-70
2022/12/17 14:02:03;;;;;;;54.83;27.70;;;-3.00;81.80;;;;;;4982190;28;20065;-67
2022/12/17 14:04:30;;;;;;;58.17;26.63;;;-3.10;81.80;;;;;;4979961;28;20494;-68
2022/12/17 14:06:59;;;;;;;55.65;27.30;;;-3.10;81.90;;;;;;4984620;28;20069;-68
2022/12/17 14:09:33;;;;;;;58.30;27.95;;;-3.10;81.90;;;;;;4985903;28;20458;-68
2022/12/17 14:12:21;;;;;;;56.63;27.95;;;-3.10;81.90;;;;;;4974435;28;20113;-68
2022/12/17 14:15:14;;;;;;;54.63;27.65;;;-3.10;81.90;;;;;;4982032;28;20044;-68
2022/12/17 14:17:44;;;;;;;58.67;29.13;;;-3.10;81.90;;;;;;4986154;28;20049;-68
2022/12/17 14:20:15;;;;;;;57.38;28.40;;;-3.00;81.90;;;;;;4981258;28;20030;-68
2022/12/17 14:22:44;;;;;;;57.70;28.75;;;-3.10;81.80;;;;;;4979237;28;20062;-70
2022/12/17 14:25:26;;;;;;;63.00;29.20;;;-3.10;81.80;;;;;;4982650;28;20031;-68
2022/12/17 14:28:03;;;;;;;59.45;28.73;;;-3.10;81.80;;;;;;4984313;28;20038;-68
2022/12/17 14:30:35;;;;;;;59.17;27.83;;;-3.10;81.90;;;;;;4980594;28;20058;-68
2022/12/17 14:33:01;;;;;;;55.58;27.95;;;-3.10;82.00;;;;;;4981063;28;20518;-68
2022/12/17 14:35:30;;;;;;;59.28;30.05;;;-3.10;82.10;;;;;;4980647;28;20083;-68
2022/12/17 14:37:56;;;;;;;62.65;30.15;;;-3.00;82.20;;;;;;4980671;28;20039;-68
2022/12/17 14:40:23;;;;;;;67.15;30.95;;;-3.00;82.30;;;;;;4982753;28;20027;-65
2022/12/17 14:42:51;;;;;;;60.40;29.88;;;-2.90;82.10;;;;;;4983689;28;20089;-67
2022/12/17 14:45:24;;;;;;;60.05;29.85;;;-2.90;82.00;;;;;;4978691;28;20046;-69
2022/12/17 14:47:56;;;;;;;61.80;30.75;;;-2.90;82.00;;;;;;4976343;28;20525;-65
2022/12/17 14:50:21;;;;;;;57.28;29.92;;;-2.90;82.10;;;;;;4981593;28;20089;-69
2022/12/17 14:52:52;;;;;;;61.08;30.60;;;-2.90;82.10;;;;;;4985561;28;20043;-69
2022/12/17 14:55:26;;;;;;;63.58;32.10;;;-2.90;81.50;;;;;;4984910;28;20042;-67
2022/12/17 14:58:04;;;;;;;65.13;31.45;;;-2.80;82.10;;;;;;4988850;28;20034;-69
2022/12/17 15:00:30;;;;;;;62.28;31.00;;;-2.90;81.10;;;;;;4987518;28;20026;-70
2022/12/17 15:02:56;;;;;;;61.63;30.35;;;-2.90;81.10;;;;;;4986887;28;20037;-69
2022/12/17 15:05:22;;;;;;;66.35;30.80;;;-2.90;81.10;;;;;;4989961;28;20053;-68
2022/12/17 15:07:47;;;;;;;69.13;32.92;;;-3.00;80.80;;;;;;4987689;28;20069;-69
2022/12/17 15:10:19;;;;;;;62.22;30.98;;;-2.90;80.60;;;;;;4985807;28;20041;-69
2022/12/17 15:12:45;;;;;;;63.75;31.73;;;-3.00;80.50;;;;;;4984598;28;20026;-68
2022/12/17 15:15:15;;;;;;;65.32;31.35;;;-3.10;80.30;;;;;;4988624;28;20469;-69
2022/12/17 15:17:41;;;;;;;58.08;28.13;;;-3.20;80.00;;;;;;4987239;28;20031;-70
2022/12/17 15:20:15;;;;;;;69.68;30.40;;;-3.30;80.00;;;;;;4987511;28;20034;-69
2022/12/17 15:22:41;;;;;;;70.55;31.13;;;-3.40;80.10;;;;;;4986487;28;20122;-69
2022/12/17 15:25:12;;;;;;;60.13;29.33;;;-3.40;80.00;;;;;;4987084;28;20134;-68
2022/12/17 15:27:37;;;;;;;67.32;31.80;;;-3.50;79.90;;;;;;4984916;28;20036;-68
2022/12/17 15:30:03;;;;;;;61.60;30.02;;;-3.50;80.90;;;;;;4995424;28;20035;-69
2022/12/17 15:32:29;;;;;;;62.90;30.58;;;-3.50;79.70;;;;;;4981938;28;20110;-69
2022/12/17 15:34:54;;;;;;;63.38;29.42;;;-3.60;79.50;;;;;;4987675;28;20153;-69
2022/12/17 15:37:20;;;;;;;65.28;29.92;;;-3.60;79.30;;;;;;4982329;28;20061;-69
2022/12/17 15:39:45;;;;;;;65.32;30.38;;;-3.70;79.20;;;;;;4980609;28;20104;-69
2022/12/17 15:44:55;;;;;;;75.60;34.55;;;-3.80;78.80;;;;;;4986267;28;20038;-70
2022/12/17 15:47:21;;;;;;;71.75;33.85;;;-3.90;78.60;;;;;;4984935;28;20042;-69
2022/12/17 15:49:46;;;;;;;77.05;35.75;;;-4.00;78.60;;;;;;4986310;28;20161;-70
2022/12/17 15:52:15;;;;;;;82.75;38.55;;;-4.10;78.60;;;;;;4982996;28;20066;-69
2022/12/17 15:54:41;;;;;;;103.88;43.85;;;-4.20;78.80;;;;;;4983186;28;20110;-69
2022/12/17 15:57:07;;;;;;;99.00;42.58;;;-4.30;79.00;;;;;;4987519;28;20054;-69
2022/12/17 15:59:33;;;;;;;94.85;42.70;;;-4.30;79.30;;;;;;4982032;28;20174;-69
2022/12/17 16:01:58;;;;;;;99.90;42.75;;;-4.40;79.50;;;;;;4985052;28;20089;-70
2022/12/17 16:04:26;;;;;;;88.25;41.13;;;-4.40;79.50;;;;;;4988030;28;20121;-69
2022/12/17 16:06:52;;;;;;;84.00;39.15;;;-4.40;79.50;;;;;;4978697;28;20047;-69
2022/12/17 16:09:18;;;;;;;80.13;39.15;;;-4.50;79.40;;;;;;4987037;28;20497;-70
2022/12/17 16:11:43;;;;;;;89.97;41.08;;;-4.50;79.50;;;;;;4981195;28;20164;-70
2022/12/17 16:14:09;;;;;;;80.47;37.20;;;-4.50;79.30;;;;;;4983383;28;20605;-69
2022/12/17 16:16:35;;;;;;;78.53;35.83;;;-4.60;79.00;;;;;;4981233;28;20537;-70
2022/12/17 16:19:01;;;;;;;74.97;36.35;;;-4.60;79.00;;;;;;4987989;28;20084;-70
2022/12/17 16:21:27;;;;;;;74.03;36.05;;;-4.70;79.00;;;;;;4989831;28;20026;-69
2022/12/17 16:23:53;;;;;;;101.47;45.00;;;-4.70;79.00;;;;;;4988255;28;20034;-69
2022/12/17 16:26:18;;;;;;;95.78;43.88;;;-4.80;78.80;;;;;;4989195;28;20185;-70
2022/12/17 16:28:44;;;;;;;90.20;42.22;;;-4.90;78.70;;;;;;4986761;28;20057;-69
2022/12/17 16:31:14;;;;;;;88.30;42.28;;;-4.90;78.80;;;;;;4987964;28;20399;-69
2022/12/17 16:33:42;;;;;;;83.53;40.70;;;-5.00;78.90;;;;;;4985547;28;20149;-70
2022/12/17 16:36:11;;;;;;;82.50;38.70;;;-5.00;79.00;;;;;;4984537;28;20312;-69
2022/12/17 16:38:43;;;;;;;82.50;39.20;;;-5.00;79.10;;;;;;4984216;28;20038;-69
2022/12/17 16:41:09;;;;;;;84.03;39.28;;;-5.10;79.10;;;;;;4980165;28;20030;-69
2022/12/17 16:43:34;;;;;;;83.85;40.70;;;-5.10;79.20;;;;;;4981828;28;20538;-70
2022/12/17 16:46:01;;;;;;;85.85;41.63;;;-5.10;79.30;;;;;;4981096;28;20084;-70
2022/12/17 16:48:26;;;;;;;91.00;41.85;;;-5.20;79.40;;;;;;4981112;28;20406;-70
2022/12/17 16:50:52;;;;;;;86.05;42.40;;;-5.20;79.60;;;;;;4982768;28;20057;-69
2022/12/17 16:53:18;;;;;;;89.82;42.90;;;-5.20;79.80;;;;;;4981749;28;20062;-70
2022/12/17 16:55:46;;;;;;;92.45;44.42;;;-5.20;80.10;;;;;;4983723;28;20042;-70
2022/12/17 16:58:14;;;;;;;96.95;44.25;;;-5.20;80.30;;;;;;4980335;28;20046;-69
2022/12/17 17:00:40;;;;;;;88.75;42.65;;;-5.20;80.50;;;;;;4979826;28;20141;-70
2022/12/17 17:03:07;;;;;;;92.90;43.17;;;-5.10;80.60;;;;;;4980905;28;20030;-70
2022/12/17 17:05:35;;;;;;;87.57;40.53;;;-5.10;80.60;;;;;;4983283;28;20042;-70
2022/12/17 17:08:01;;;;;;;94.13;42.05;;;-5.10;80.60;;;;;;4983710;28;20034;-70
2022/12/17 17:10:28;;;;;;;92.63;42.67;;;-5.10;80.70;;;;;;4978728;28;20170;-70
2022/12/17 17:12:54;;;;;;;99.40;44.80;;;-5.00;81.00;;;;;;4983783;28;20050;-70
2022/12/17 17:15:21;;;;;;;95.78;43.75;;;-5.00;81.10;;;;;;4981875;28;20030;-69
2022/12/17 17:17:47;;;;;;;96.80;44.25;;;-4.90;81.00;;;;;;4982657;28;20033;-69
2022/12/17 17:20:13;;;;;;;97.13;42.60;;;-4.90;80.90;;;;;;4979396;28;20034;-69
2022/12/17 17:22:39;;;;;;;94.88;43.72;;;-4.90;81.00;;;;;;4982762;28;20065;-70
2022/12/17 17:25:04;;;;;;;93.82;43.53;;;-4.80;81.40;;;;;;4979166;28;20062;-69
2022/12/17 17:27:36;;;;;;;78.22;37.92;;;-4.80;81.70;;;;;;4983698;28;20379;-69
2022/12/17 17:30:02;;;;;;;68.97;33.75;;;-4.70;82.10;;;;;;4981186;28;20031;-70
2022/12/17 17:32:27;;;;;;;84.03;35.47;;;-4.60;82.50;;;;;;4980346;28;20038;-70
2022/12/17 17:34:53;;;;;;;84.40;35.97;;;-4.60;82.80;;;;;;4981934;28;20042;-70
2022/12/17 17:37:19;;;;;;;73.22;33.25;;;-4.50;83.20;;;;;;4985749;28;20043;-69
2022/12/17 17:39:45;;;;;;;74.15;34.55;;;-4.40;83.40;;;;;;4980333;28;20566;-69
2022/12/17 17:42:10;;;;;;;76.82;33.67;;;-4.30;83.70;;;;;;4976810;28;20039;-69
2022/12/17 17:44:37;;;;;;;73.53;32.88;;;-4.30;83.80;;;;;;4982921;28;20108;-70
2022/12/17 17:47:03;;;;;;;79.32;34.35;;;-4.20;84.00;;;;;;4984859;28;20402;-70
2022/12/17 17:49:29;;;;;;;75.93;33.17;;;-4.10;84.20;;;;;;4979820;28;20038;-69
2022/12/17 17:51:54;;;;;;;74.40;33.75;;;-4.00;84.30;;;;;;4984749;28;20496;-70
2022/12/17 17:54:20;;;;;;;80.00;34.03;;;-4.00;84.40;;;;;;4982307;28;20068;-69
2022/12/17 17:56:46;;;;;;;79.20;34.47;;;-3.90;84.60;;;;;;4981621;28;20041;-69
2022/12/17 17:59:18;;;;;;;82.32;35.72;;;-3.80;84.60;;;;;;4978218;28;20070;-69
2022/12/17 18:01:47;;;;;;;75.95;33.90;;;-3.80;84.70;;;;;;4984496;28;20337;-70
2022/12/17 18:04:15;;;;;;;78.75;34.90;;;-3.70;85.50;;;;;;4980440;28;20458;-70
2022/12/17 18:06:45;;;;;;;72.20;32.38;;;-3.60;84.70;;;;;;4981467;28;20038;-70
2022/12/17 18:09:11;;;;;;;81.63;34.38;;;-3.60;84.70;;;;;;4980287;28;20048;-69
2022/12/17 18:11:39;;;;;;;78.60;34.30;;;-3.50;84.70;;;;;;4984229;28;20426;-70
2022/12/17 18:14:06;;;;;;;87.03;35.67;;;-3.50;84.70;;;;;;4980922;28;20027;-69
2022/12/17 18:16:36;;;;;;;81.40;35.33;;;-3.40;84.70;;;;;;4980171;28;20394;-68
2022/12/17 18:19:06;;;;;;;73.85;34.25;;;-3.40;84.70;;;;;;4986772;28;20066;-70
2022/12/17 18:21:33;;;;;;;79.03;34.42;;;-3.30;85.50;;;;;;4987934;28;20081;-70
2022/12/17 18:24:21;;;;;;;87.00;36.58;;;-3.30;84.60;;;;;;4986510;28;20037;-70
2022/12/17 18:26:47;;;;;;;74.65;32.45;;;-3.20;84.90;;;;;;4986991;28;20038;-70
2022/12/17 18:29:22;;;;;;;78.90;35.03;;;-3.20;84.50;;;;;;4987251;28;20046;-69
2022/12/17 18:31:49;;;;;;;74.65;34.50;;;-3.10;84.60;;;;;;4983347;28;20027;-69
2022/12/17 18:34:16;;;;;;;76.18;34.58;;;-3.10;84.50;;;;;;4980981;28;20410;-69
2022/12/17 18:36:43;;;;;;;69.50;33.03;;;-3.10;84.40;;;;;;4985030;28;20035;-70
2022/12/17 18:39:16;;;;;;;76.32;34.38;;;-3.10;84.40;;;;;;4983121;28;20043;-69
2022/12/17 18:44:29;;;;;;;72.68;32.67;;;-3.00;84.40;;;;;;4984140;28;20101;-69
2022/12/17 18:46:54;;;;;;;77.80;33.97;;;-3.00;84.40;;;;;;4984841;28;20030;-70
2022/12/17 18:49:22;;;;;;;73.72;32.85;;;-3.00;84.40;;;;;;4984090;28;20089;-69
2022/12/17 18:51:49;;;;;;;81.97;35.17;;;-3.00;84.60;;;;;;4984897;28;20498;-70
2022/12/17 18:54:18;;;;;;;80.80;35.92;;;-2.90;84.70;;;;;;4986116;28;20122;-70
2022/12/17 18:56:44;;;;;;;74.35;33.50;;;-2.90;84.70;;;;;;4982915;28;20030;-69
2022/12/17 18:59:13;;;;;;;72.90;33.90;;;-2.90;84.70;;;;;;4980796;28;20438;-70
2022/12/17 19:01:38;;;;;;;75.75;34.25;;;-2.80;84.70;;;;;;4983284;28;20414;-69
2022/12/17 19:04:06;;;;;;;75.03;33.60;;;-2.80;84.70;;;;;;4982648;28;20031;-70
2022/12/17 19:06:35;;;;;;;68.82;32.10;;;-2.80;84.70;;;;;;4986550;28;20038;-70
2022/12/17 19:09:01;;;;;;;72.03;33.72;;;-2.70;84.90;;;;;;4986313;28;20050;-70
2022/12/17 19:11:30;;;;;;;78.40;35.13;;;-2.70;84.70;;;;;;4986038;28;20069;-70
2022/12/17 19:13:55;;;;;;;78.55;35.03;;;-2.70;84.70;;;;;;4984383;28;20038;-70
2022/12/17 19:16:24;;;;;;;74.45;35.35;;;-2.60;84.90;;;;;;4980636;28;20049;-70
2022/12/17 19:18:58;;;;;;;70.63;34.13;;;-2.60;84.90;;;;;;4980957;28;20046;-69
2022/12/17 19:21:24;;;;;;;;;;;-2.60;84.90;;;;;;4987985;28;20089;-70
2022/12/17 19:23:58;;;;;;;67.30;31.08;;;-2.60;85.40;;;;;;4982724;28;19957;-70
2022/12/17 19:26:24;;;;;;;81.63;37.47;;;-2.50;84.60;;;;;;4987369;28;20030;-70
2022/12/17 19:28:52;;;;;;;79.95;36.95;;;-2.50;84.60;;;;;;4984399;28;20038;-70
2022/12/17 19:31:20;;;;;;;88.90;38.85;;;-2.50;84.40;;;;;;4979824;28;20057;-69
2022/12/17 19:33:46;;;;;;;105.72;43.78;;;-2.50;84.20;;;;;;4985627;28;20494;-70
2022/12/17 19:36:14;;;;;;;94.65;39.53;;;-2.60;84.10;;;;;;4985581;28;20170;-70
2022/12/17 19:38:40;;;;;;;80.63;37.85;;;-2.60;84.10;;;;;;4983602;28;20567;-69
2022/12/17 19:41:13;;;;;;;81.32;37.42;;;-2.60;84.00;;;;;;4990423;28;20042;-70
2022/12/17 19:43:39;;;;;;;85.75;37.70;;;-2.60;84.00;;;;;;5000357;28;20027;-70
2022/12/17 19:46:25;;;;;;;79.97;37.00;;;-2.60;84.10;;;;;;4983691;28;20038;-70
2022/12/17 19:48:51;;;;;;;72.82;35.70;;;-2.50;84.30;;;;;;4984694;28;20050;-70
2022/12/17 19:51:20;;;;;;;82.03;37.83;;;-2.50;84.20;;;;;;4988214;28;20026;-68
2022/12/17 19:53:47;;;;;;;77.95;36.35;;;-2.50;84.40;;;;;;4986771;28;20190;-69
2022/12/17 19:56:16;;;;;;;76.45;35.47;;;-2.50;84.30;;;;;;4983352;28;20035;-70
2022/12/17 19:58:42;;;;;;;69.90;33.47;;;-2.50;84.30;;;;;;4979484;28;20053;-70
2022/12/17 20:01:12;;;;;;;70.05;33.72;;;-2.50;84.30;;;;;;4984260;28;20073;-70
2022/12/17 20:03:39;;;;;;;62.72;32.47;;;-2.50;84.40;;;;;;4986815;28;20074;-69
2022/12/17 20:06:05;;;;;;;65.82;31.75;;;-2.40;84.50;;;;;;4983798;28;20031;-70
2022/12/17 20:08:32;;;;;;;60.15;29.83;;;-2.40;84.40;;;;;;4983897;28;20752;-70
2022/12/17 20:10:59;;;;;;;61.20;30.08;;;-2.40;84.40;;;;;;4982655;28;20049;-70
2022/12/17 20:13:25;;;;;;;68.60;32.88;;;-2.40;85.30;;;;;;4985355;28;20409;-70
2022/12/17 20:16:04;;;;;;;62.63;30.08;;;-2.40;84.40;;;;;;4980964;28;20046;-70
2022/12/17 20:18:31;;;;;;;56.88;27.23;;;-2.30;84.60;;;;;;4984957;28;20045;-69
2022/12/17 20:21:04;;;;;;;61.30;28.55;;;-2.30;84.40;;;;;;4989357;28;20518;-70
2022/12/17 20:23:30;;;;;;;55.22;27.10;;;-2.30;84.30;;;;;;4988292;28;20631;-69
2022/12/17 20:26:09;;;;;;;54.33;27.75;;;-2.30;84.40;;;;;;4989563;28;20038;-70
2022/12/17 20:28:35;;;;;;;53.95;26.20;;;-2.30;84.40;;;;;;4988343;28;20038;-70
2022/12/17 20:31:02;;;;;;;56.35;27.65;;;-2.30;84.30;;;;;;4987682;28;20030;-70
2022/12/17 20:33:28;;;;;;;57.22;28.30;;;-2.20;84.30;;;;;;4980262;28;20392;-69
2022/12/17 20:35:54;;;;;;;53.55;27.20;;;-2.20;84.30;;;;;;4983405;28;20057;-70
2022/12/17 20:38:20;;;;;;;53.03;26.58;;;-2.20;84.30;;;;;;4982024;28;20494;-70
2022/12/17 20:40:46;;;;;;;57.83;28.60;;;-2.20;84.40;;;;;;4986416;28;20050;-70
2022/12/17 20:43:11;;;;;;;66.07;30.98;;;-2.10;84.30;;;;;;4985900;28;20031;-70
2022/12/17 20:45:37;;;;;;;75.22;33.60;;;-2.20;84.20;;;;;;4977642;28;20037;-70
2022/12/17 20:48:03;;;;;;;76.93;34.30;;;-2.20;84.00;;;;;;4983982;28;20030;-70
2022/12/17 20:50:28;;;;;;;82.07;36.28;;;-2.20;83.90;;;;;;4973705;28;20364;-69
2022/12/17 20:52:57;;;;;;;85.80;36.65;;;-2.20;83.90;;;;;;4977986;28;20117;-70
2022/12/17 20:55:22;;;;;;;79.45;35.08;;;-2.30;83.70;;;;;;4976765;28;20031;-69
2022/12/17 20:57:48;;;;;;;95.50;38.75;;;-2.30;83.60;;;;;;4976400;28;20046;-70
2022/12/17 21:00:14;;;;;;;89.60;37.80;;;-2.40;83.50;;;;;;4976672;28;20046;-70
2022/12/17 21:02:39;;;;;;;98.97;40.33;;;-2.40;83.50;;;;;;4978306;28;20031;-70
2022/12/17 21:05:05;;;;;;;100.70;40.65;;;-2.50;83.30;;;;;;4975724;28;20038;-69
2022/12/17 21:07:31;;;;;;;93.75;38.95;;;-2.50;83.20;;;;;;4977601;28;20781;-68
2022/12/17 21:09:56;;;;;;;91.03;36.88;;;-2.60;83.20;;;;;;4976537;28;20503;-69
2022/12/17 21:13:27;;;;;;;98.35;39.80;;;-2.60;83.50;;;;;;4974131;28;20038;-69
2022/12/17 21:15:08;;;;;;;102.30;40.85;;;-2.70;83.70;;;;;;4979237;28;20026;-69
2022/12/17 21:17:33;;;;;;;99.25;40.95;;;-2.80;83.70;;;;;;4978820;28;20035;-69
2022/12/17 21:19:59;;;;;;;95.90;37.92;;;-2.80;83.80;;;;;;4972215;28;20046;-70
2022/12/17 21:22:24;;;;;;;104.20;39.92;;;-2.90;83.90;;;;;;4972983;28;20388;-70
2022/12/17 21:24:50;;;;;;;99.40;39.05;;;-2.90;84.20;;;;;;4978063;28;20112;-70
2022/12/17 21:27:16;;;;;;;93.38;38.58;;;-2.90;84.30;;;;;;4976773;28;20181;-67
2022/12/17 21:29:41;;;;;;;104.53;40.67;;;-2.90;84.50;;;;;;4979429;28;20034;-69
2022/12/17 21:32:07;;;;;;;104.97;41.38;;;-3.00;84.60;;;;;;4975482;28;20037;-68
2022/12/17 21:34:34;;;;;;;107.93;41.20;;;-2.90;84.80;;;;;;4974894;28;20034;-69
2022/12/17 21:36:59;;;;;;;109.50;41.25;;;-2.90;84.80;;;;;;4975242;28;20042;-69
2022/12/17 21:39:25;;;;;;;105.40;41.58;;;-2.90;84.80;;;;;;4976568;28;20493;-69
2022/12/17 21:44:35;;;;;;;103.38;39.42;;;-2.90;84.90;;;;;;4978554;28;20056;-70
2022/12/17 21:47:01;;;;;;;105.40;40.20;;;-2.90;85.00;;;;;;4977184;28;20085;-69
2022/12/17 21:49:26;;;;;;;89.70;36.67;;;-2.80;85.10;;;;;;4974664;28;20305;-69
2022/12/17 21:51:52;;;;;;;103.47;41.25;;;-2.80;84.90;;;;;;4976337;28;20045;-70
2022/12/17 21:54:17;;;;;;;98.90;39.50;;;-2.80;84.90;;;;;;4981848;28;22212;-70
2022/12/17 21:56:43;;;;;;;109.15;42.42;;;-2.80;84.80;;;;;;4975748;28;20054;-69
2022/12/17 21:59:10;;;;;;;97.03;37.97;;;-2.90;84.90;;;;;;4978374;28;20133;-70
2022/12/17 22:01:35;;;;;;;107.43;40.65;;;-2.90;84.80;;;;;;4986548;28;20034;-70
2022/12/17 22:04:03;;;;;;;98.93;40.15;;;-2.90;84.90;;;;;;4975924;28;20047;-69
2022/12/17 22:06:30;;;;;;;103.25;39.38;;;-2.90;85.00;;;;;;4974627;28;20042;-70
2022/12/17 22:08:57;;;;;;;107.40;40.22;;;-2.90;85.10;;;;;;4975594;28;20042;-69
2022/12/17 22:11:24;;;;;;;101.93;39.00;;;-2.90;85.20;;;;;;4974361;28;20049;-69
2022/12/17 22:14:08;;;;;;;100.93;39.60;;;-2.90;85.30;;;;;;4979209;28;20329;-69
2022/12/17 22:16:45;;;;;;;100.68;40.42;;;-2.90;85.40;;;;;;4979104;28;20560;-69
2022/12/17 22:19:18;;;;;;;97.75;36.80;;;-2.90;85.50;;;;;;4975223;28;20046;-70
2022/12/17 22:21:45;;;;;;;99.65;39.20;;;-2.80;85.50;;;;;;4979537;28;20042;-69
2022/12/17 22:24:13;;;;;;;94.07;38.10;;;-2.80;85.50;;;;;;4980624;28;20455;-70
2022/12/17 22:26:39;;;;;;;104.43;38.97;;;-2.80;85.40;;;;;;4976434;28;20114;-70
2022/12/17 22:29:05;;;;;;;93.95;40.28;;;-2.80;85.40;;;;;;4981140;28;20060;-69
2022/12/17 22:34:15;;;;;;;99.47;39.00;;;-2.70;85.30;;;;;;4979466;28;20144;-69
2022/12/17 22:36:41;;;;;;;101.50;39.50;;;-2.70;85.20;;;;;;4978369;28;20128;-70
2022/12/17 22:39:09;;;;;;;97.43;39.30;;;-2.70;85.10;;;;;;4977285;28;20045;-69
2022/12/17 22:44:19;;;;;;;96.45;38.00;;;-2.70;85.20;;;;;;4980281;28;20041;-69
2022/12/17 22:46:45;;;;;;;100.15;38.78;;;-2.60;85.30;;;;;;4980056;28;20047;-70
2022/12/17 22:49:11;;;;;;;90.05;36.35;;;-2.70;85.30;;;;;;4975570;28;20035;-69
2022/12/17 22:51:38;;;;;;;92.20;36.47;;;-2.70;85.20;;;;;;4981463;28;20539;-69
2022/12/17 22:54:07;;;;;;;91.15;37.17;;;-2.60;85.30;;;;;;4977468;28;20537;-70
2022/12/17 22:56:34;;;;;;;86.32;35.92;;;-2.60;85.20;;;;;;4976296;28;20557;-70
2022/12/17 22:59:00;;;;;;;89.03;37.60;;;-2.60;85.20;;;;;;4978097;28;20046;-70
2022/12/17 23:01:26;;;;;;;85.68;36.35;;;-2.60;85.20;;;;;;4977810;28;20635;-69
2022/12/17 23:03:56;;;;;;;93.88;37.63;;;-2.60;85.20;;;;;;4974059;28;21986;-69
2022/12/17 23:06:22;;;;;;;90.13;35.95;;;-2.50;85.20;;;;;;4982479;28;20046;-70
2022/12/17 23:08:48;;;;;;;88.40;36.53;;;-2.50;85.10;;;;;;4974777;28;20053;-69
2022/12/17 23:11:16;;;;;;;95.57;37.38;;;-2.50;85.10;;;;;;4978497;28;20034;-69
2022/12/17 23:13:42;;;;;;;84.88;35.97;;;-2.50;85.00;;;;;;4978994;28;20046;-70
2022/12/17 23:16:12;;;;;;;85.55;35.65;;;-2.60;84.90;;;;;;4982586;28;20514;-69
2022/12/17 23:18:38;;;;;;;88.13;36.28;;;-2.60;85.00;;;;;;4982757;28;20064;-70
2022/12/17 23:21:14;;;;;;;85.57;35.70;;;-2.60;85.10;;;;;;4980664;28;20502;-69
2022/12/17 23:23:40;;;;;;;88.60;35.63;;;-2.50;85.40;;;;;;4974654;28;20030;-70
2022/12/17 23:26:10;;;;;;;83.80;36.53;;;-2.50;85.40;;;;;;4975129;28;20026;-70
2022/12/17 23:28:39;;;;;;;89.60;35.97;;;-2.50;85.40;;;;;;4978768;28;20725;-69
2022/12/17 23:31:10;;;;;;;87.45;36.30;;;-2.50;85.30;;;;;;4980150;28;20041;-70
2022/12/17 23:33:36;;;;;;;82.95;35.05;;;-2.40;85.20;;;;;;4977792;28;20568;-69
2022/12/17 23:36:07;;;;;;;83.28;35.30;;;-2.40;85.10;;;;;;4980351;28;20605;-70
2022/12/17 23:38:33;;;;;;;86.13;36.25;;;-2.40;84.90;;;;;;4976862;28;20510;-69
2022/12/17 23:41:06;;;;;;;84.47;35.08;;;-2.40;84.90;;;;;;4977406;28;20034;-69
2022/12/17 23:43:32;;;;;;;81.18;34.85;;;-2.40;84.80;;;;;;4977118;28;20065;-70
2022/12/17 23:45:58;;;;;;;86.85;36.55;;;-2.40;84.70;;;;;;4977065;28;20149;-69
2022/12/17 23:48:24;;;;;;;88.13;35.75;;;-2.40;84.70;;;;;;4978092;28;20114;-69
2022/12/17 23:50:50;;;;;;;84.43;35.60;;;-2.40;84.70;;;;;;4980540;28;20034;-70
2022/12/17 23:53:15;;;;;;;86.53;35.42;;;-2.50;84.70;;;;;;4979622;28;20096;-70
2022/12/17 23:55:41;;;;;;;80.88;34.50;;;-2.50;84.80;;;;;;4974751;28;20099;-69
2022/12/17 23:58:06;;;;;;;81.65;33.13;;;-2.50;84.90;;;;;;4981491;28;20113;-69
